Teluk Intan, Malaysia
Current Conditions -  °F | °C
As of 10:00 PM on Thursday 27 Nov 2014 (Local Time) from WMBA Reporting Station
Light Rain Light Rain  
Wind Chill: 77°   Ceiling: 26000
Heat Index: 78°   Visibility: 5mi
Dew Point: 75°   Wind: 2mph
Humidity: 94%   Direction: 10°N
Pressure: 29.83"   Gusts: NA
Location:  4.02°N, 101.03°E
Report Text: WMBA 271400Z 01002KT 8000 -RA FEW006 FEW017CB SCT030 OVC260 25/24 Q1010
Loading
Personal Weather Stations






























Interactive Weather Map New forecast layout! Learn more

10-Day Weather Forecast

Advertisements
Track Severe Weather on mobile